Time;durP1;ratioP1;P1;durP2;ratioP2;P2;SDS_P1;SDS_P2;PMS_P1;PMS_P2;Temp;Humidity;BMP_temperature;BMP_pressure;BME280_temperature;BME280_humidity;BME280_pressure;Samples;Min_cycle;Max_cycle;Signal;HPM_P1;HPM_P2
2023/12/11 00:00:49;;;;;;;106.78;98.82;;;13.90;99.90;;;;;;5033825;28;20509;-67
2023/12/11 00:03:15;;;;;;;113.15;104.88;;;13.90;99.90;;;;;;5032297;28;20033;-68
2023/12/11 00:05:41;;;;;;;104.80;97.15;;;13.90;99.90;;;;;;5014519;28;20038;-67
2023/12/11 00:08:07;;;;;;;105.07;97.18;;;13.90;99.90;;;;;;5030825;28;20048;-67
2023/12/11 00:10:33;;;;;;;106.07;97.63;;;13.90;99.90;;;;;;5034059;28;20033;-67
2023/12/11 00:12:59;;;;;;;92.80;85.63;;;13.90;99.90;;;;;;5032695;28;20513;-67
2023/12/11 00:15:26;;;;;;;88.18;81.20;;;13.90;99.90;;;;;;5033648;28;20132;-67
2023/12/11 00:17:52;;;;;;;95.35;87.57;;;13.90;99.90;;;;;;5033832;28;20060;-67
2023/12/11 00:20:18;;;;;;;107.82;99.38;;;13.90;99.90;;;;;;5033453;28;20049;-68
2023/12/11 00:22:44;;;;;;;93.47;86.13;;;13.90;99.90;;;;;;5034179;28;20030;-67
2023/12/11 00:25:13;;;;;;;109.97;101.10;;;13.90;99.90;;;;;;5033935;28;20040;-67
2023/12/11 00:27:39;;;;;;;88.25;80.45;;;13.90;99.90;;;;;;5033369;28;20041;-67
2023/12/11 00:30:06;;;;;;;106.45;98.07;;;13.90;99.90;;;;;;5028887;28;20030;-67
2023/12/11 00:32:32;;;;;;;109.05;101.03;;;13.90;99.90;;;;;;5033025;28;20402;-67
2023/12/11 00:34:59;;;;;;;101.25;93.53;;;13.90;99.90;;;;;;5025598;28;20030;-67
2023/12/11 00:37:25;;;;;;;104.45;95.35;;;13.90;99.90;;;;;;5026162;28;20037;-67
2023/12/11 00:39:51;;;;;;;101.97;93.82;;;13.80;99.90;;;;;;5013961;28;20033;-67
2023/12/11 00:42:17;;;;;;;103.00;94.03;;;13.80;99.90;;;;;;5029397;28;20431;-67
2023/12/11 00:44:43;;;;;;;119.30;110.68;;;13.80;99.90;;;;;;5033140;28;20021;-67
2023/12/11 00:47:10;;;;;;;120.32;111.30;;;13.80;99.90;;;;;;5033056;28;20041;-68
2023/12/11 00:49:36;;;;;;;126.25;116.40;;;13.80;99.90;;;;;;5033186;28;20037;-67
2023/12/11 00:52:03;;;;;;;136.30;126.15;;;13.80;99.90;;;;;;5032922;28;20045;-67
2023/12/11 00:54:29;;;;;;;134.52;124.13;;;13.80;99.90;;;;;;5033138;28;20037;-67
2023/12/11 00:56:55;;;;;;;129.85;120.18;;;13.90;99.90;;;;;;5032412;28;20029;-67
2023/12/11 00:59:21;;;;;;;123.05;113.88;;;13.80;99.90;;;;;;5033458;28;20026;-67
2023/12/11 01:01:48;;;;;;;131.18;121.72;;;13.80;99.90;;;;;;5032619;28;20402;-67
2023/12/11 01:04:14;;;;;;;125.10;115.78;;;13.90;99.90;;;;;;5032901;28;20202;-67
2023/12/11 01:06:41;;;;;;;106.80;98.20;;;13.90;99.90;;;;;;5032931;28;20495;-67
2023/12/11 01:09:07;;;;;;;122.43;112.60;;;13.90;99.90;;;;;;5025856;28;20030;-67
2023/12/11 01:11:33;;;;;;;126.38;116.65;;;13.90;99.90;;;;;;5024432;28;20041;-67
2023/12/11 01:13:59;;;;;;;120.70;111.28;;;13.90;99.90;;;;;;5033278;28;20489;-67
2023/12/11 01:16:25;;;;;;;129.05;118.82;;;13.90;99.90;;;;;;5032465;28;20038;-67
2023/12/11 01:18:52;;;;;;;158.25;146.82;;;14.00;99.90;;;;;;5032557;28;20041;-67
2023/12/11 01:21:18;;;;;;;142.82;132.20;;;14.00;99.90;;;;;;5028414;28;20041;-67
2023/12/11 01:23:44;;;;;;;144.45;134.57;;;14.00;99.90;;;;;;5032801;28;20025;-67
2023/12/11 01:26:10;;;;;;;131.93;121.80;;;14.00;99.90;;;;;;5032274;28;20469;-67
2023/12/11 01:28:36;;;;;;;145.20;135.00;;;14.00;99.90;;;;;;5032683;28;20029;-67
2023/12/11 01:31:02;;;;;;;136.40;126.57;;;14.00;99.90;;;;;;5029102;28;20037;-67
2023/12/11 01:33:28;;;;;;;126.20;117.43;;;14.10;99.90;;;;;;5031539;28;20045;-67
2023/12/11 01:35:55;;;;;;;127.85;118.18;;;14.00;99.90;;;;;;5032484;28;20048;-67
2023/12/11 01:38:21;;;;;;;149.52;139.65;;;14.00;99.90;;;;;;5032687;28;20029;-67
2023/12/11 01:40:47;;;;;;;158.60;147.27;;;14.10;99.90;;;;;;5030519;28;20489;-67
2023/12/11 01:43:20;;;;;;;128.95;119.75;;;14.10;99.90;;;;;;5032120;28;20026;-67
2023/12/11 01:45:53;;;;;;;120.72;111.22;;;14.10;99.90;;;;;;5031656;28;20045;-68
2023/12/11 01:48:19;;;;;;;152.30;142.02;;;14.10;99.90;;;;;;5032666;28;20034;-67
2023/12/11 01:50:45;;;;;;;135.02;125.55;;;14.10;99.90;;;;;;5030171;28;20041;-67
2023/12/11 01:53:11;;;;;;;138.82;129.75;;;14.10;99.90;;;;;;5014043;28;20394;-67
2023/12/11 01:55:37;;;;;;;127.38;118.55;;;14.10;99.90;;;;;;5029471;28;20048;-67
2023/12/11 01:58:04;;;;;;;144.05;133.40;;;14.10;99.90;;;;;;5032347;28;20038;-67
2023/12/11 02:00:30;;;;;;;133.15;124.30;;;14.10;99.90;;;;;;5029738;28;20422;-67
2023/12/11 02:02:56;;;;;;;104.10;96.60;;;14.10;99.90;;;;;;5021557;28;20034;-67
2023/12/11 02:05:22;;;;;;;131.00;121.38;;;14.10;99.90;;;;;;5012547;28;20038;-68
2023/12/11 02:07:48;;;;;;;128.85;119.20;;;14.10;99.90;;;;;;5026337;28;20489;-67
2023/12/11 02:10:14;;;;;;;109.40;101.05;;;14.20;99.90;;;;;;5029564;28;20033;-67
2023/12/11 02:12:41;;;;;;;110.82;102.38;;;14.20;99.90;;;;;;5030600;28;20409;-67
2023/12/11 02:15:08;;;;;;;109.70;101.40;;;14.20;99.90;;;;;;5030254;28;20040;-67
2023/12/11 02:17:34;;;;;;;108.63;101.20;;;14.10;99.90;;;;;;5012497;28;20046;-67
2023/12/11 02:20:00;;;;;;;125.40;116.90;;;14.20;99.90;;;;;;5023126;28;20030;-67
2023/12/11 02:22:26;;;;;;;123.43;114.60;;;14.20;99.90;;;;;;5013114;28;20394;-68
2023/12/11 02:24:56;;;;;;;132.13;123.18;;;14.20;99.90;;;;;;5012297;28;20038;-67
2023/12/11 02:27:22;;;;;;;101.00;93.80;;;14.20;99.90;;;;;;5010990;28;20038;-67
2023/12/11 02:29:50;;;;;;;114.15;105.85;;;14.20;99.90;;;;;;5020405;28;20045;-67
2023/12/11 02:32:16;;;;;;;120.15;111.97;;;14.20;99.90;;;;;;5028537;28;20034;-68
2023/12/11 02:34:43;;;;;;;133.70;124.85;;;14.20;99.90;;;;;;5031479;28;20037;-67
2023/12/11 02:37:09;;;;;;;121.10;112.78;;;14.10;99.90;;;;;;5018241;28;20076;-67
2023/12/11 02:39:36;;;;;;;117.78;109.90;;;14.10;99.90;;;;;;5012222;28;20045;-67
2023/12/11 02:42:02;;;;;;;112.47;105.38;;;14.10;99.90;;;;;;5026797;28;20048;-67
2023/12/11 02:44:28;;;;;;;117.50;109.80;;;14.10;99.90;;;;;;5031723;28;20040;-67
2023/12/11 02:46:54;;;;;;;110.10;102.63;;;14.10;99.90;;;;;;5031210;28;20045;-67
2023/12/11 02:49:20;;;;;;;122.30;113.93;;;14.10;99.90;;;;;;5031564;28;20040;-67
2023/12/11 02:51:46;;;;;;;115.78;108.03;;;14.20;99.90;;;;;;5017759;28;20505;-67
2023/12/11 02:54:12;;;;;;;121.55;113.80;;;14.20;99.90;;;;;;5013163;28;20041;-67
2023/12/11 02:56:40;;;;;;;118.95;111.55;;;14.20;99.90;;;;;;5023447;28;20052;-67
2023/12/11 02:59:06;;;;;;;109.80;102.68;;;14.20;99.90;;;;;;5031111;28;20049;-67
2023/12/11 03:01:32;;;;;;;116.22;108.85;;;14.20;99.90;;;;;;5024961;28;20060;-67
2023/12/11 03:03:58;;;;;;;109.90;101.40;;;14.30;99.90;;;;;;5033150;28;20032;-67
2023/12/11 03:06:24;;;;;;;180.70;169.45;;;14.30;99.90;;;;;;5035171;28;20041;-67
2023/12/11 03:08:50;;;;;;;114.28;106.28;;;14.30;99.90;;;;;;5035501;28;20032;-67
2023/12/11 03:11:16;;;;;;;128.60;120.28;;;14.40;99.90;;;;;;5029490;28;20367;-67
2023/12/11 03:13:42;;;;;;;96.72;90.18;;;14.30;99.90;;;;;;5026144;28;20030;-67
2023/12/11 03:16:12;;;;;;;130.45;122.32;;;14.30;99.90;;;;;;5022843;28;20049;-68
2023/12/11 03:18:43;;;;;;;127.20;119.47;;;14.40;99.90;;;;;;5035032;28;20049;-67
2023/12/11 03:21:09;;;;;;;113.05;106.28;;;14.40;99.90;;;;;;5023167;28;20489;-67
2023/12/11 03:23:35;;;;;;;109.75;102.53;;;14.40;99.90;;;;;;5034234;28;20030;-67
2023/12/11 03:26:01;;;;;;;106.18;99.32;;;14.40;99.90;;;;;;5034668;28;20053;-67
2023/12/11 03:28:28;;;;;;;107.75;101.10;;;14.50;99.90;;;;;;5035311;28;20500;-67
2023/12/11 03:30:54;;;;;;;108.15;101.50;;;14.40;99.90;;;;;;5034108;28;20038;-67
2023/12/11 03:33:20;;;;;;;111.72;105.15;;;14.40;99.90;;;;;;5034737;28;20049;-67
2023/12/11 03:35:46;;;;;;;107.93;101.28;;;14.40;99.90;;;;;;5032940;28;20034;-67
2023/12/11 03:38:12;;;;;;;114.43;107.50;;;14.40;99.90;;;;;;5035029;28;20033;-67
2023/12/11 03:40:38;;;;;;;110.13;103.35;;;14.40;99.90;;;;;;5034618;28;20493;-67
2023/12/11 03:43:04;;;;;;;113.13;106.75;;;14.40;99.90;;;;;;5034928;28;20045;-67
2023/12/11 03:45:31;;;;;;;113.15;106.55;;;14.40;99.90;;;;;;5031937;28;20099;-67
2023/12/11 03:47:57;;;;;;;102.50;96.50;;;14.40;99.90;;;;;;5015367;28;20046;-67
2023/12/11 03:50:23;;;;;;;105.65;99.53;;;14.40;99.90;;;;;;5016161;28;20040;-67
2023/12/11 03:52:49;;;;;;;103.57;97.72;;;14.30;99.90;;;;;;5033432;28;20405;-67
2023/12/11 03:55:15;;;;;;;116.07;109.53;;;14.30;99.90;;;;;;5032771;28;20037;-67
2023/12/11 03:57:41;;;;;;;112.20;105.78;;;14.30;99.90;;;;;;5034806;28;20052;-67
2023/12/11 04:00:08;;;;;;;115.85;109.35;;;14.40;99.90;;;;;;5033773;28;20025;-67
2023/12/11 04:02:34;;;;;;;102.68;96.63;;;14.40;99.90;;;;;;5033065;28;20056;-67
2023/12/11 04:05:00;;;;;;;119.43;113.03;;;14.40;99.90;;;;;;5033597;28;20489;-68
2023/12/11 04:07:28;;;;;;;122.70;116.22;;;14.40;99.90;;;;;;5034220;28;20034;-67
2023/12/11 04:09:54;;;;;;;106.43;99.95;;;14.50;99.90;;;;;;5034273;28;20042;-67
2023/12/11 04:12:20;;;;;;;111.38;104.97;;;14.40;99.90;;;;;;5032706;28;20049;-67
2023/12/11 04:14:46;;;;;;;120.85;113.95;;;14.40;99.90;;;;;;5033959;28;20033;-67
2023/12/11 04:17:13;;;;;;;110.82;104.80;;;14.40;99.90;;;;;;5033172;28;20034;-67
2023/12/11 04:19:39;;;;;;;107.38;101.45;;;14.40;99.90;;;;;;5033767;28;20025;-67
2023/12/11 04:22:06;;;;;;;104.93;99.38;;;14.20;99.90;;;;;;5018025;28;20042;-67
2023/12/11 04:24:32;;;;;;;109.78;103.75;;;14.10;99.90;;;;;;5014549;28;20045;-67
2023/12/11 04:26:58;;;;;;;113.95;107.97;;;14.10;99.90;;;;;;5028881;28;20029;-67
2023/12/11 04:29:24;;;;;;;134.27;126.90;;;14.10;99.90;;;;;;5033771;28;20040;-67
2023/12/11 04:31:50;;;;;;;94.57;89.80;;;14.10;99.90;;;;;;5033365;28;20056;-67
2023/12/11 04:34:16;;;;;;;92.53;87.68;;;14.10;99.90;;;;;;5032198;28;20041;-67
2023/12/11 04:36:43;;;;;;;111.07;104.97;;;13.90;99.90;;;;;;5033825;28;20034;-67
2023/12/11 04:39:09;;;;;;;99.95;94.28;;;13.80;99.90;;;;;;5033646;28;20041;-67
2023/12/11 04:41:35;;;;;;;96.93;91.53;;;13.70;99.90;;;;;;5033240;28;20049;-67
2023/12/11 04:44:02;;;;;;;99.25;93.82;;;13.80;99.90;;;;;;5033870;28;20382;-67
2023/12/11 04:46:28;;;;;;;126.95;120.30;;;13.80;99.90;;;;;;5032610;28;20037;-67
2023/12/11 04:48:54;;;;;;;125.28;118.25;;;13.80;99.90;;;;;;5032528;28;20033;-67
2023/12/11 04:51:20;;;;;;;171.10;161.85;;;13.60;99.90;;;;;;5031687;28;20478;-68
2023/12/11 04:53:46;;;;;;;176.55;167.23;;;13.70;99.90;;;;;;5021938;28;20045;-67
2023/12/11 04:56:12;;;;;;;164.80;155.95;;;13.60;99.90;;;;;;5028656;28;20036;-67
2023/12/11 04:58:39;;;;;;;141.98;134.35;;;13.70;99.90;;;;;;5024361;28;20390;-67
2023/12/11 05:01:05;;;;;;;143.65;136.02;;;13.80;99.90;;;;;;5025052;28;20052;-67
2023/12/11 05:03:31;;;;;;;140.15;132.38;;;13.70;99.90;;;;;;5016179;28;20045;-67
2023/12/11 05:05:57;;;;;;;94.30;89.13;;;13.60;99.90;;;;;;5019620;28;20034;-67
2023/12/11 05:08:23;;;;;;;112.10;106.30;;;13.60;99.90;;;;;;5032638;28;20029;-67
2023/12/11 05:10:49;;;;;;;97.97;92.78;;;13.50;99.90;;;;;;5031915;28;20034;-67
2023/12/11 05:13:15;;;;;;;80.07;75.28;;;13.60;99.90;;;;;;5033141;28;20048;-67
2023/12/11 05:15:41;;;;;;;85.38;80.07;;;13.70;99.90;;;;;;5028020;28;20034;-67
2023/12/11 05:18:08;;;;;;;487.23;120.72;;;13.80;99.90;;;;;;5013264;28;20030;-67
2023/12/11 05:20:34;;;;;;;100.97;95.55;;;13.80;99.90;;;;;;5015313;28;20037;-67
2023/12/11 05:23:00;;;;;;;125.78;102.63;;;13.80;99.90;;;;;;5032880;28;20505;-67
2023/12/11 05:25:26;;;;;;;323.58;109.35;;;13.90;99.90;;;;;;5032530;28;20028;-67
2023/12/11 05:27:52;;;;;;;88.68;83.63;;;13.90;99.90;;;;;;5030757;28;20121;-67
2023/12/11 05:30:18;;;;;;;94.30;89.13;;;13.90;99.90;;;;;;5020810;28;20057;-68
2023/12/11 05:32:44;;;;;;;107.13;101.28;;;13.90;99.90;;;;;;5030872;28;20053;-67
2023/12/11 05:35:10;;;;;;;104.97;99.55;;;14.00;99.90;;;;;;5030005;28;20073;-67
2023/12/11 05:37:37;;;;;;;99.50;94.07;;;14.00;99.90;;;;;;5018765;28;20037;-67
2023/12/11 05:40:03;;;;;;;91.28;86.30;;;13.90;99.90;;;;;;5012927;28;20081;-67
2023/12/11 05:42:29;;;;;;;88.80;84.07;;;13.90;99.90;;;;;;5031819;28;20041;-67
2023/12/11 05:44:55;;;;;;;98.57;93.32;;;13.90;99.90;;;;;;5032189;28;20033;-68
2023/12/11 05:47:21;;;;;;;95.32;90.40;;;13.80;99.90;;;;;;5031778;28;20044;-67
2023/12/11 05:49:47;;;;;;;87.13;82.05;;;13.90;99.90;;;;;;5032740;28;20037;-67
2023/12/11 05:52:13;;;;;;;85.28;80.57;;;13.90;99.90;;;;;;5031987;28;20036;-67
2023/12/11 05:54:39;;;;;;;80.28;76.10;;;13.90;99.90;;;;;;5032621;28;20044;-67
2023/12/11 05:57:05;;;;;;;88.53;83.80;;;13.80;99.90;;;;;;5032209;28;20034;-67
2023/12/11 05:59:32;;;;;;;87.55;83.03;;;13.80;99.90;;;;;;5032025;28;20026;-68
2023/12/11 06:01:58;;;;;;;87.70;83.05;;;13.70;99.90;;;;;;5031391;28;20524;-67
2023/12/11 06:04:24;;;;;;;88.38;83.45;;;13.70;99.90;;;;;;5031062;28;20037;-68
2023/12/11 06:06:50;;;;;;;82.38;77.90;;;13.80;99.90;;;;;;5032007;28;20034;-67
2023/12/11 06:09:16;;;;;;;89.72;85.07;;;13.80;99.90;;;;;;5032188;28;20049;-67
2023/12/11 06:11:43;;;;;;;99.28;93.97;;;13.80;99.90;;;;;;5031849;28;20038;-67
2023/12/11 06:14:09;;;;;;;85.90;81.28;;;13.80;99.90;;;;;;5031706;28;20045;-67
2023/12/11 06:16:35;;;;;;;95.30;90.10;;;13.70;99.90;;;;;;5031588;28;20046;-67
2023/12/11 06:19:02;;;;;;;84.53;79.95;;;13.70;99.90;;;;;;5032308;28;20037;-67
2023/12/11 06:21:28;;;;;;;89.97;85.30;;;13.70;99.90;;;;;;5027921;28;20034;-67
2023/12/11 06:23:54;;;;;;;80.63;76.35;;;13.70;99.90;;;;;;5032035;28;20386;-67
2023/12/11 06:26:28;;;;;;;82.55;78.30;;;13.70;99.90;;;;;;5031917;28;20030;-67
2023/12/11 06:28:54;;;;;;;84.25;79.82;;;13.80;99.90;;;;;;5031592;28;20029;-67
2023/12/11 06:31:20;;;;;;;78.75;73.95;;;13.90;99.90;;;;;;5031321;28;20040;-67
2023/12/11 06:33:46;;;;;;;82.75;78.35;;;13.90;99.90;;;;;;5032010;28;20052;-67
2023/12/11 06:36:13;;;;;;;81.32;77.10;;;13.80;99.90;;;;;;5029956;28;20033;-67
2023/12/11 06:38:39;;;;;;;84.78;80.30;;;13.80;99.90;;;;;;5032198;28;20033;-67
2023/12/11 06:41:05;;;;;;;92.45;87.68;;;13.80;99.90;;;;;;5019641;28;20033;-69
2023/12/11 06:43:31;;;;;;;82.00;77.50;;;13.80;99.90;;;;;;5032260;28;20064;-66
2023/12/11 06:45:57;;;;;;;98.57;93.38;;;13.80;99.90;;;;;;5035242;28;20491;-67
2023/12/11 06:48:24;;;;;;;80.18;76.00;;;13.80;99.90;;;;;;5027439;28;20034;-67
2023/12/11 06:50:50;;;;;;;84.03;79.65;;;13.80;99.90;;;;;;5021465;28;20041;-67
2023/12/11 06:53:16;;;;;;;86.43;82.00;;;13.80;99.90;;;;;;5035797;28;20473;-67
2023/12/11 06:55:42;;;;;;;85.25;80.78;;;13.80;99.90;;;;;;5035614;28;20033;-67
2023/12/11 06:58:08;;;;;;;83.82;79.47;;;13.80;99.90;;;;;;5032382;28;20033;-67
2023/12/11 07:00:35;;;;;;;95.70;90.20;;;13.70;99.90;;;;;;5020648;28;20033;-67
2023/12/11 07:03:01;;;;;;;97.88;92.25;;;13.70;99.90;;;;;;5035532;28;20489;-67
2023/12/11 07:05:27;;;;;;;87.38;82.72;;;13.60;99.90;;;;;;5032912;28;20025;-67
2023/12/11 07:07:53;;;;;;;112.45;106.68;;;13.60;99.90;;;;;;5015843;28;20402;-67
2023/12/11 07:10:19;;;;;;;111.82;106.00;;;13.50;99.90;;;;;;5015486;28;20042;-67
2023/12/11 07:12:47;;;;;;;88.10;83.43;;;13.50;99.90;;;;;;5015338;28;20038;-67
2023/12/11 07:15:13;;;;;;;119.43;113.10;;;13.60;99.90;;;;;;5026041;28;20041;-67
2023/12/11 07:17:39;;;;;;;105.57;99.93;;;13.50;99.90;;;;;;5031594;28;20501;-67
2023/12/11 07:20:06;;;;;;;160.38;99.93;;;13.50;99.90;;;;;;5028059;28;20025;-66
2023/12/11 07:22:34;;;;;;;115.05;108.07;;;13.60;99.90;;;;;;5035140;28;20068;-66
2023/12/11 07:25:00;;;;;;;106.63;100.97;;;13.60;99.90;;;;;;5035280;28;20049;-66
2023/12/11 07:27:26;;;;;;;96.05;91.20;;;13.60;99.90;;;;;;5034878;28;20402;-69
2023/12/11 07:29:53;;;;;;;100.00;94.72;;;13.50;99.90;;;;;;5035231;28;20033;-69
2023/12/11 07:32:19;;;;;;;103.40;98.07;;;13.50;99.90;;;;;;5031259;28;20033;-66
2023/12/11 07:34:45;;;;;;;93.53;88.53;;;13.40;99.90;;;;;;5032476;28;20065;-67
2023/12/11 07:37:11;;;;;;;93.32;88.13;;;13.40;99.90;;;;;;5034333;28;20040;-66
2023/12/11 07:39:38;;;;;;;92.22;87.25;;;13.40;99.90;;;;;;5034891;28;20042;-67
2023/12/11 07:42:04;;;;;;;79.43;75.30;;;13.40;99.90;;;;;;5034130;28;20041;-66
2023/12/11 07:44:30;;;;;;;82.50;78.13;;;13.40;99.90;;;;;;5033905;28;20037;-66
2023/12/11 07:46:56;;;;;;;72.22;68.20;;;13.40;99.90;;;;;;5029923;28;20458;-66
2023/12/11 07:49:22;;;;;;;100.43;95.25;;;13.40;99.90;;;;;;5033061;28;20037;-66
2023/12/11 07:51:48;;;;;;;92.93;87.97;;;13.40;99.90;;;;;;5034679;28;20026;-66
2023/12/11 07:54:14;;;;;;;73.80;69.90;;;13.40;99.90;;;;;;5033570;28;20431;-66
2023/12/11 07:56:41;;;;;;;120.28;113.93;;;13.50;99.90;;;;;;5034098;28;20026;-66
2023/12/11 07:59:07;;;;;;;134.98;127.90;;;13.50;99.90;;;;;;5034313;28;20041;-66
2023/12/11 08:01:33;;;;;;;162.77;154.13;;;13.60;99.90;;;;;;5033728;28;20037;-66
2023/12/11 08:03:59;;;;;;;130.77;123.80;;;13.60;99.90;;;;;;5034276;28;20038;-67
2023/12/11 08:06:25;;;;;;;114.97;108.85;;;13.50;99.90;;;;;;5034294;28;20033;-66
2023/12/11 08:08:52;;;;;;;106.90;101.30;;;13.50;99.90;;;;;;5032278;28;20048;-66
2023/12/11 08:11:19;;;;;;;90.40;85.28;;;13.50;99.90;;;;;;5033926;28;20029;-66
2023/12/11 08:13:45;;;;;;;120.20;113.88;;;13.60;99.90;;;;;;5025669;28;20038;-66
2023/12/11 08:16:11;;;;;;;104.75;99.10;;;13.60;99.90;;;;;;5013948;28;20030;-67
2023/12/11 08:18:37;;;;;;;93.35;88.25;;;13.60;99.90;;;;;;5028408;28;20064;-66
2023/12/11 08:21:04;;;;;;;93.00;88.15;;;13.60;99.90;;;;;;5033524;28;20041;-67
2023/12/11 08:23:30;;;;;;;112.90;107.15;;;13.60;99.90;;;;;;5032594;28;20052;-66
2023/12/11 08:25:56;;;;;;;96.50;91.43;;;13.60;99.90;;;;;;5033257;28;20053;-66
2023/12/11 08:28:22;;;;;;;99.15;93.95;;;13.60;99.90;;;;;;5033190;28;20041;-67
2023/12/11 08:30:49;;;;;;;116.30;110.22;;;13.60;99.90;;;;;;5032320;28;20398;-67
2023/12/11 08:33:15;;;;;;;101.72;96.47;;;13.60;99.90;;;;;;5033594;28;20041;-67
2023/12/11 08:35:41;;;;;;;96.93;91.95;;;13.60;99.90;;;;;;5032985;28;20030;-67
2023/12/11 08:38:07;;;;;;;91.72;86.88;;;13.50;99.90;;;;;;5032025;28;20025;-67
2023/12/11 08:40:33;;;;;;;98.15;92.93;;;13.50;99.90;;;;;;5032878;28;20076;-67
2023/12/11 08:42:59;;;;;;;92.90;88.22;;;13.60;99.90;;;;;;5033433;28;20040;-67
2023/12/11 08:45:25;;;;;;;99.53;94.40;;;13.60;99.90;;;;;;5032761;28;20029;-67
2023/12/11 08:47:51;;;;;;;93.15;88.38;;;13.60;99.90;;;;;;5033374;28;20021;-66
2023/12/11 08:50:17;;;;;;;107.93;102.38;;;13.60;99.90;;;;;;5031921;28;20040;-67
2023/12/11 08:52:44;;;;;;;110.40;104.40;;;13.70;99.90;;;;;;5020972;28;20028;-66
2023/12/11 08:55:10;;;;;;;105.22;99.70;;;13.70;99.90;;;;;;5021355;28;20060;-67
2023/12/11 08:57:36;;;;;;;103.18;97.85;;;13.70;99.90;;;;;;5015121;28;20049;-67
2023/12/11 09:00:05;;;;;;;102.53;97.18;;;13.70;99.90;;;;;;5011831;28;20041;-67
2023/12/11 09:02:31;;;;;;;103.03;97.88;;;13.70;99.90;;;;;;5031479;28;20482;-66
2023/12/11 09:04:57;;;;;;;91.90;87.25;;;13.70;99.90;;;;;;5033402;28;20032;-67
2023/12/11 09:07:24;;;;;;;93.50;88.72;;;13.70;99.90;;;;;;5015008;28;20686;-66
2023/12/11 09:09:50;;;;;;;107.88;101.97;;;13.60;99.90;;;;;;5013507;28;20038;-67
2023/12/11 09:12:16;;;;;;;106.88;101.30;;;13.60;99.90;;;;;;5013242;28;20030;-67
2023/12/11 09:14:42;;;;;;;106.57;100.97;;;13.60;99.90;;;;;;5013504;28;20022;-67
2023/12/11 09:17:08;;;;;;;120.80;114.05;;;13.60;99.90;;;;;;5012778;28;20038;-67
2023/12/11 09:19:34;;;;;;;111.70;105.50;;;13.60;99.90;;;;;;5013438;28;20041;-67
2023/12/11 09:22:00;;;;;;;123.28;116.43;;;13.60;99.90;;;;;;5013007;28;20034;-67
2023/12/11 09:24:26;;;;;;;133.40;124.75;;;13.60;99.90;;;;;;5012988;28;20036;-66
2023/12/11 09:26:53;;;;;;;142.85;135.07;;;13.60;99.90;;;;;;5012990;28;20038;-66
2023/12/11 09:29:19;;;;;;;131.13;123.82;;;13.60;99.90;;;;;;5028097;28;20036;-66
2023/12/11 09:31:46;;;;;;;127.63;120.57;;;13.60;99.90;;;;;;5031960;28;20040;-66
2023/12/11 09:34:12;;;;;;;137.43;129.88;;;13.60;99.90;;;;;;5032747;28;20049;-66
2023/12/11 09:36:38;;;;;;;126.28;119.07;;;13.70;99.90;;;;;;5032229;28;20049;-67
2023/12/11 09:39:07;;;;;;;148.27;139.85;;;13.70;99.90;;;;;;5032277;28;20022;-66
2023/12/11 09:41:33;;;;;;;158.50;149.57;;;13.70;99.90;;;;;;5031730;28;20049;-66
2023/12/11 09:44:00;;;;;;;141.07;132.95;;;13.70;99.90;;;;;;5031379;28;20390;-68
2023/12/11 09:46:31;;;;;;;134.98;127.43;;;13.80;99.90;;;;;;5031836;28;20033;-69
2023/12/11 09:48:57;;;;;;;;;;;13.80;99.90;;;;;;5033078;28;20029;-66
2023/12/11 09:51:24;;;;;;;111.55;105.20;;;13.80;99.90;;;;;;5029384;28;19916;-67
2023/12/11 09:53:50;;;;;;;109.70;103.53;;;13.80;99.90;;;;;;5031359;28;20038;-68
2023/12/11 09:56:16;;;;;;;138.55;130.98;;;13.80;99.90;;;;;;4990867;28;20069;-69
2023/12/11 09:58:43;;;;;;;136.07;128.40;;;13.90;99.90;;;;;;5023981;28;20033;-68
2023/12/11 10:01:12;;;;;;;147.70;139.63;;;13.90;99.90;;;;;;5019971;28;20052;-68
2023/12/11 10:03:38;;;;;;;137.00;129.45;;;14.10;99.90;;;;;;5031781;28;20427;-68
2023/12/11 10:06:04;;;;;;;138.43;130.63;;;14.10;99.90;;;;;;5024630;28;20026;-69
2023/12/11 10:08:32;;;;;;;158.38;149.63;;;14.20;99.90;;;;;;5012634;28;20053;-68
2023/12/11 10:11:09;;;;;;;182.10;172.10;;;14.20;99.90;;;;;;5029875;28;20487;-68
2023/12/11 10:13:36;;;;;;;130.85;123.95;;;14.30;99.90;;;;;;5030835;28;20049;-68
2023/12/11 10:16:02;;;;;;;137.55;130.20;;;14.30;99.90;;;;;;5029497;28;20029;-67
2023/12/11 10:18:28;;;;;;;118.25;112.00;;;14.30;99.90;;;;;;5032198;28;20025;-66
2023/12/11 10:20:57;;;;;;;124.47;117.75;;;14.40;99.90;;;;;;5030647;28;20029;-67
2023/12/11 10:23:23;;;;;;;132.82;125.97;;;14.40;99.90;;;;;;5026518;28;20052;-73
2023/12/11 10:25:53;;;;;;;141.05;133.73;;;14.50;99.90;;;;;;5022281;28;20034;-63
2023/12/11 10:28:22;;;;;;;187.85;177.77;;;14.50;99.90;;;;;;5028079;28;20041;-63
2023/12/11 10:30:52;;;;;;;189.32;179.15;;;14.60;99.90;;;;;;5024782;28;20041;-63
2023/12/11 10:33:18;;;;;;;248.52;234.27;;;14.60;99.90;;;;;;5027066;28;20057;-63
2023/12/11 10:35:45;;;;;;;160.02;151.38;;;14.70;99.90;;;;;;5031245;28;20032;-67
2023/12/11 10:38:21;;;;;;;219.73;207.45;;;14.70;99.90;;;;;;5031460;28;20048;-66
2023/12/11 10:40:49;;;;;;;198.18;187.27;;;14.70;99.90;;;;;;5029697;28;20040;-66
2023/12/11 10:43:16;;;;;;;258.38;244.18;;;14.80;99.90;;;;;;5030985;28;20065;-66
2023/12/11 10:45:42;;;;;;;136.00;128.68;;;14.80;99.90;;;;;;5030744;28;20382;-66
2023/12/11 10:48:08;;;;;;;149.10;141.05;;;14.80;99.90;;;;;;5031653;28;20025;-66
2023/12/11 10:50:35;;;;;;;223.63;211.77;;;14.80;99.90;;;;;;5028725;28;20033;-66
2023/12/11 10:53:02;;;;;;;196.52;186.23;;;14.80;99.90;;;;;;5031473;28;20389;-66
2023/12/11 10:55:29;;;;;;;187.52;177.70;;;14.80;99.90;;;;;;5030857;28;20505;-66
2023/12/11 10:57:57;;;;;;;197.88;187.40;;;14.80;99.90;;;;;;5031716;28;20045;-66
2023/12/11 11:00:23;;;;;;;258.30;244.43;;;14.80;99.90;;;;;;5030863;28;20053;-66
2023/12/11 11:02:51;;;;;;;185.43;175.82;;;14.80;99.90;;;;;;5029818;28;20045;-66
2023/12/11 11:05:18;;;;;;;205.75;194.82;;;14.90;99.90;;;;;;5029047;28;20382;-66
2023/12/11 11:07:55;;;;;;;175.82;166.32;;;15.00;99.90;;;;;;5026374;28;20046;-66
2023/12/11 11:10:25;;;;;;;205.45;194.55;;;15.00;99.90;;;;;;5030247;28;20040;-66
2023/12/11 11:12:55;;;;;;;145.38;137.73;;;14.90;99.90;;;;;;5029947;28;20059;-67
2023/12/11 11:15:25;;;;;;;201.55;190.80;;;14.90;99.90;;;;;;5013720;28;20034;-66
2023/12/11 11:17:58;;;;;;;235.77;222.73;;;14.90;99.90;;;;;;5030129;28;20037;-66
2023/12/11 11:20:26;;;;;;;167.20;157.95;;;14.90;99.90;;;;;;5030481;28;20029;-67
2023/12/11 11:22:52;;;;;;;166.43;157.55;;;14.90;99.90;;;;;;5030609;28;20038;-66
2023/12/11 11:25:31;;;;;;;146.23;138.55;;;14.90;99.90;;;;;;5013897;28;20040;-66
2023/12/11 11:27:57;;;;;;;156.05;148.02;;;14.90;99.90;;;;;;5032555;28;20049;-66
2023/12/11 11:30:43;;;;;;;149.15;141.32;;;14.90;99.90;;;;;;5033416;28;20037;-66
2023/12/11 11:33:09;;;;;;;137.93;130.65;;;14.90;99.90;;;;;;5019532;28;20053;-65
2023/12/11 11:35:45;;;;;;;177.80;168.55;;;14.90;99.90;;;;;;5032765;28;20045;-67
2023/12/11 11:38:11;;;;;;;158.35;150.02;;;14.80;99.90;;;;;;5032369;28;20419;-66
2023/12/11 11:40:38;;;;;;;136.32;128.93;;;14.80;99.90;;;;;;5034045;28;20462;-66
2023/12/11 11:43:07;;;;;;;167.13;157.82;;;14.90;99.90;;;;;;5034058;28;20037;-66
2023/12/11 11:45:33;;;;;;;172.63;163.55;;;14.80;99.90;;;;;;5032406;28;20397;-66
2023/12/11 11:47:59;;;;;;;133.43;126.22;;;14.90;99.90;;;;;;5030445;28;20032;-67
2023/12/11 11:50:25;;;;;;;154.73;146.30;;;14.90;99.90;;;;;;5021327;28;20037;-66
2023/12/11 11:53:08;;;;;;;176.57;167.07;;;14.80;99.90;;;;;;5033386;28;20052;-65
2023/12/11 11:55:38;;;;;;;189.75;179.13;;;14.80;99.90;;;;;;5032116;28;20375;-65
2023/12/11 11:58:14;;;;;;;120.47;114.07;;;14.90;99.90;;;;;;5027914;28;20038;-65
2023/12/11 12:00:40;;;;;;;159.73;150.65;;;14.90;99.90;;;;;;5030141;28;20436;-67
2023/12/11 12:03:09;;;;;;;158.05;149.35;;;14.90;99.90;;;;;;5032018;28;20371;-67
2023/12/11 12:05:38;;;;;;;215.63;203.65;;;14.80;99.90;;;;;;5032451;28;20466;-67
2023/12/11 12:08:08;;;;;;;183.48;173.15;;;14.80;99.90;;;;;;5023114;28;20033;-68
2023/12/11 12:10:34;;;;;;;181.45;171.55;;;14.80;99.90;;;;;;5033206;28;20045;-67